Time;durP1;ratioP1;P1;durP2;ratioP2;P2;SDS_P1;SDS_P2;PMS_P1;PMS_P2;Temp;Humidity;BMP_temperature;BMP_pressure;BME280_temperature;BME280_humidity;BME280_pressure;Samples;Min_cycle;Max_cycle;Signal;HPM_P1;HPM_P2
2023/10/05 00:03:50;;;;;;;6.30;2.80;;;;;;;15.47;62.35;100391.50;4993509;28;20145;-76
2023/10/05 00:06:23;;;;;;;8.07;2.67;;;;;;;15.47;62.34;100395.94;4994035;28;20050;-76
2023/10/05 00:08:52;;;;;;;8.38;2.85;;;;;;;15.46;62.66;100403.09;4994265;28;20062;-77
2023/10/05 00:11:30;;;;;;;8.23;2.58;;;;;;;15.45;62.74;100398.75;4993894;28;20546;-78
2023/10/05 00:13:59;;;;;;;13.32;2.92;;;;;;;15.46;62.91;100405.75;4976326;28;20443;-76
2023/10/05 00:16:36;;;;;;;10.02;2.72;;;;;;;15.48;62.93;100402.97;4993542;28;20604;-79
2023/10/05 00:19:11;;;;;;;8.27;2.42;;;;;;;15.47;63.37;100398.59;4976569;28;20052;-76
2023/10/05 00:21:51;;;;;;;9.70;2.80;;;;;;;15.51;63.55;100410.72;4993906;28;20052;-77
2023/10/05 00:24:23;;;;;;;7.53;3.00;;;;;;;15.55;62.99;100400.75;4993451;28;20072;-79
2023/10/05 00:26:50;;;;;;;7.38;2.55;;;;;;;15.57;62.68;100398.84;4976064;28;20507;-78
2023/10/05 00:29:29;;;;;;;8.68;3.10;;;;;;;15.59;63.08;100403.09;4992806;28;20624;-78
2023/10/05 00:32:00;;;;;;;10.55;2.90;;;;;;;15.61;63.05;100403.00;4993748;28;20064;-78
2023/10/05 00:34:28;;;;;;;7.00;2.95;;;;;;;15.63;63.01;100398.44;4993432;28;20061;-79
2023/10/05 00:36:58;;;;;;;9.55;2.85;;;;;;;15.66;63.12;100400.88;4993182;28;20208;-76
2023/10/05 00:39:29;;;;;;;13.63;2.90;;;;;;;15.68;63.23;100393.66;4993528;28;20062;-77
2023/10/05 00:44:34;;;;;;;10.57;2.80;;;;;;;15.72;63.05;100389.84;4993476;28;20462;-77
2023/10/05 00:47:06;;;;;;;11.48;3.03;;;;;;;15.74;63.08;100390.56;4992979;28;20046;-77
2023/10/05 00:49:53;;;;;;;7.85;2.72;;;;;;;15.75;63.36;100386.97;4993390;28;20090;-77
2023/10/05 00:52:24;;;;;;;8.38;2.80;;;;;;;15.80;63.20;100388.44;4993163;28;20086;-78
2023/10/05 00:54:58;;;;;;;10.77;3.10;;;;;;;15.80;63.58;100383.13;4993411;28;20062;-77
2023/10/05 00:57:25;;;;;;;6.80;2.63;;;;;;;15.83;63.45;100380.28;4993106;28;20053;-76
2023/10/05 01:00:26;;;;;;;11.60;3.40;;;;;;;15.84;63.28;100388.16;4993129;28;20093;-79
2023/10/05 01:03:10;;;;;;;7.65;2.63;;;;;;;15.87;63.09;100379.97;4992807;28;20058;-78
2023/10/05 01:05:47;;;;;;;8.85;2.80;;;;;;;15.90;63.29;100381.56;4992611;28;20062;-76
2023/10/05 01:08:16;;;;;;;10.73;3.15;;;;;;;15.90;63.21;100378.91;4992715;28;20046;-77
2023/10/05 01:10:44;;;;;;;11.02;3.33;;;;;;;15.90;63.31;100381.56;4992930;28;20438;-77
2023/10/05 01:13:34;;;;;;;9.10;2.80;;;;;;;15.87;63.63;100373.81;4992647;28;20136;-79
2023/10/05 01:16:12;;;;;;;8.18;2.90;;;;;;;15.91;63.13;100367.31;4992667;28;20261;-76
2023/10/05 01:18:40;;;;;;;12.85;3.25;;;;;;;15.91;63.12;100375.28;4992687;28;20062;-77
2023/10/05 01:21:07;;;;;;;11.93;3.53;;;;;;;15.90;63.26;100361.16;4992628;28;20137;-76
2023/10/05 01:23:38;;;;;;;8.82;2.83;;;;;;;15.90;63.13;100365.63;4992434;28;20086;-78
2023/10/05 01:26:12;;;;;;;9.35;3.25;;;;;;;15.90;63.41;100368.28;4988825;23;22385;-81
2023/10/05 01:28:41;;;;;;;9.40;3.45;;;;;;;15.89;63.29;100379.88;4992678;28;20049;-80
2023/10/05 01:31:16;;;;;;;11.40;3.75;;;;;;;15.89;63.38;100369.25;4975823;28;20090;-80
2023/10/05 01:33:45;;;;;;;8.05;3.03;;;;;;;15.89;63.42;100374.56;4992853;28;20586;-81
2023/10/05 01:36:11;;;;;;;9.98;3.15;;;;;;;15.88;63.47;100367.53;4992584;28;20050;-81
2023/10/05 01:38:39;;;;;;;10.45;3.30;;;;;;;15.89;63.66;100382.53;4992682;28;20482;-81
2023/10/05 01:41:07;;;;;;;6.05;3.35;;;;;;;15.88;63.62;100373.69;4992800;28;20106;-80
2023/10/05 01:43:35;;;;;;;11.15;3.60;;;;;;;15.89;63.59;100377.22;4991821;28;20423;-81
2023/10/05 01:46:04;;;;;;;10.40;3.25;;;;;;;15.90;63.75;100373.59;4992338;28;20497;-81
2023/10/05 01:48:31;;;;;;;13.45;3.50;;;;;;;15.92;63.83;100376.97;4992526;28;20085;-81
2023/10/05 01:51:09;;;;;;;8.70;3.53;;;;;;;15.92;63.85;100376.97;4992480;28;20077;-80
2023/10/05 01:53:36;;;;;;;9.45;3.42;;;;;;;15.94;63.88;100372.47;4992345;28;20050;-81
2023/10/05 01:56:03;;;;;;;6.78;2.83;;;;;;;15.96;63.94;100377.66;4992326;28;20046;-80
2023/10/05 01:58:36;;;;;;;13.60;3.97;;;;;;;15.97;63.70;100377.56;4974928;28;20089;-81
2023/10/05 02:01:06;;;;;;;10.85;3.10;;;;;;;16.00;63.86;100379.16;4992315;28;20050;-80
2023/10/05 02:03:33;;;;;;;8.25;3.53;;;;;;;16.00;63.78;100377.34;4991905;28;20046;-81
2023/10/05 02:06:05;;;;;;;9.20;3.50;;;;;;;16.02;64.25;100375.44;4992287;28;20057;-81
2023/10/05 02:08:35;;;;;;;7.45;3.20;;;;;;;16.02;63.77;100372.78;4992484;28;20109;-81
2023/10/05 02:11:04;;;;;;;8.77;3.40;;;;;;;16.03;63.94;100373.59;4992324;28;20051;-81
2023/10/05 02:13:31;;;;;;;9.98;3.65;;;;;;;16.03;63.78;100365.63;4991792;28;20085;-81
2023/10/05 02:15:59;;;;;;;12.10;3.70;;;;;;;16.03;64.03;100368.28;4991839;28;20534;-81
2023/10/05 02:18:26;;;;;;;10.00;3.50;;;;;;;16.03;63.96;100360.34;4992342;28;20132;-81
2023/10/05 02:20:57;;;;;;;11.60;3.35;;;;;;;16.02;63.97;100362.16;4992228;28;20054;-81
2023/10/05 02:23:28;;;;;;;8.30;2.97;;;;;;;16.02;64.08;100364.81;4974636;28;20490;-81
2023/10/05 02:26:01;;;;;;;8.30;2.85;;;;;;;16.02;63.74;100359.50;4991676;28;20097;-81
2023/10/05 02:28:27;;;;;;;13.70;3.38;;;;;;;16.04;64.01;100366.50;4974638;28;20061;-80
2023/10/05 02:30:59;;;;;;;10.20;3.40;;;;;;;16.04;63.91;100366.50;4991991;28;20082;-81
2023/10/05 02:33:28;;;;;;;9.63;3.03;;;;;;;16.03;64.13;100352.38;4992048;28;20109;-81
2023/10/05 02:38:49;;;;;;;7.65;2.90;;;;;;;16.06;64.02;100367.22;4991846;28;20138;-81
2023/10/05 02:41:24;;;;;;;15.45;3.28;;;;;;;16.06;64.21;100361.91;4992056;28;20094;-81
2023/10/05 02:43:54;;;;;;;8.50;2.90;;;;;;;16.07;64.17;100363.63;4990880;28;20046;-81
2023/10/05 02:46:24;;;;;;;10.57;3.17;;;;;;;16.07;64.19;100368.94;4990947;28;20082;-81
2023/10/05 02:48:51;;;;;;;11.73;3.35;;;;;;;16.08;64.20;100368.00;4991196;28;20058;-81
2023/10/05 02:51:18;;;;;;;8.27;2.88;;;;;;;16.10;64.10;100379.34;4991131;28;20042;-81
2023/10/05 02:53:46;;;;;;;10.43;3.35;;;;;;;16.08;64.33;100376.81;4993733;28;20046;-81
2023/10/05 02:56:28;;;;;;;10.70;3.35;;;;;;;16.06;64.78;100368.09;4994967;28;20106;-80
2023/10/05 02:58:56;;;;;;;8.95;2.90;;;;;;;16.12;64.19;100364.16;4995097;28;20490;-81
2023/10/05 03:01:23;;;;;;;9.35;2.80;;;;;;;16.11;64.34;100363.28;4995103;28;20140;-81
2023/10/05 03:03:51;;;;;;;9.70;3.45;;;;;;;16.12;64.32;100359.69;4994548;28;20060;-80
2023/10/05 03:06:22;;;;;;;8.77;3.17;;;;;;;16.12;64.16;100362.34;4994968;28;20054;-81
2023/10/05 03:08:50;;;;;;;14.63;3.45;;;;;;;16.13;64.39;100360.53;4995033;28;20051;-80
2023/10/05 03:11:18;;;;;;;8.73;3.13;;;;;;;16.14;64.32;100362.22;4994949;28;20055;-81
2023/10/05 03:13:46;;;;;;;8.48;2.75;;;;;;;16.14;64.22;100354.25;4994687;28;20050;-80
2023/10/05 03:16:16;;;;;;;8.32;2.70;;;;;;;16.15;64.27;100350.66;4977217;28;20074;-81
2023/10/05 03:18:43;;;;;;;9.95;3.03;;;;;;;16.16;64.37;100347.03;4995041;28;20050;-81
2023/10/05 03:21:14;;;;;;;12.93;3.10;;;;;;;16.15;64.43;100350.66;4994486;28;20101;-81
2023/10/05 03:23:41;;;;;;;9.48;3.28;;;;;;;16.17;64.29;100353.19;4977191;28;20057;-80
2023/10/05 03:26:13;;;;;;;9.32;3.42;;;;;;;16.15;64.60;100348.00;4994128;28;20132;-82
2023/10/05 03:28:41;;;;;;;11.43;3.20;;;;;;;16.18;64.12;100334.50;4977155;28;20046;-80
2023/10/05 03:31:30;;;;;;;11.52;2.60;;;;;;;16.15;64.87;100342.69;4994767;28;20373;-82
2023/10/05 03:33:56;;;;;;;9.10;2.70;;;;;;;16.20;64.19;100347.66;4977347;28;20058;-82
2023/10/05 03:36:23;;;;;;;8.77;3.42;;;;;;;16.18;64.27;100337.16;4993920;28;20553;-82
2023/10/05 03:38:56;;;;;;;10.85;2.88;;;;;;;16.19;64.21;100351.28;4994198;28;20050;-81
2023/10/05 03:41:26;;;;;;;6.95;3.00;;;;;;;16.19;64.24;100343.31;4994335;28;20046;-82
2023/10/05 03:43:55;;;;;;;6.05;2.53;;;;;;;16.18;64.37;100346.94;4976735;28;20057;-82
2023/10/05 03:46:25;;;;;;;10.43;2.70;;;;;;;16.19;64.13;100346.84;4993428;28;20104;-82
2023/10/05 03:48:59;;;;;;;7.07;2.47;;;;;;;16.18;64.17;100333.66;4994058;28;20453;-81
2023/10/05 03:51:28;;;;;;;7.18;2.30;;;;;;;16.19;64.00;100340.66;4994207;28;20058;-82
2023/10/05 03:53:55;;;;;;;10.07;2.55;;;;;;;16.18;63.95;100334.50;4993980;28;20570;-82
2023/10/05 03:56:27;;;;;;;7.00;2.60;;;;;;;16.17;64.06;100343.44;4994051;28;20047;-82
2023/10/05 03:58:54;;;;;;;9.00;2.10;;;;;;;16.16;64.17;100341.75;4994006;28;20112;-82
2023/10/05 04:01:24;;;;;;;8.80;2.25;;;;;;;16.17;64.25;100339.91;4994097;28;20100;-82
2023/10/05 04:03:51;;;;;;;8.70;2.33;;;;;;;16.14;64.37;100328.56;4993125;28;20050;-81
2023/10/05 04:06:17;;;;;;;7.30;2.42;;;;;;;16.13;64.21;100336.63;4993035;28;20157;-82
2023/10/05 04:08:50;;;;;;;6.50;2.53;;;;;;;16.07;64.95;100340.56;4993585;28;20056;-81
2023/10/05 04:11:18;;;;;;;9.23;2.60;;;;;;;16.09;64.44;100348.44;4976502;28;20038;-82
2023/10/05 04:13:45;;;;;;;7.50;2.30;;;;;;;16.07;64.54;100345.88;4993845;28;20046;-82
2023/10/05 04:16:21;;;;;;;8.27;2.58;;;;;;;16.06;64.57;100343.34;4976235;28;20057;-82
2023/10/05 04:18:52;;;;;;;6.15;2.30;;;;;;;16.05;64.75;100338.97;4993394;28;20426;-81
2023/10/05 04:21:19;;;;;;;9.70;2.20;;;;;;;16.03;64.78;100347.06;4976434;28;20084;-81
2023/10/05 04:23:49;;;;;;;7.75;2.90;;;;;;;16.02;64.60;100340.06;4993644;28;20768;-82
2023/10/05 04:26:18;;;;;;;8.30;3.10;;;;;;;16.01;64.78;100354.28;4993341;28;20050;-82
2023/10/05 04:28:52;;;;;;;9.30;3.25;;;;;;;16.01;64.93;100354.28;4993303;28;20077;-81
2023/10/05 04:31:22;;;;;;;9.00;3.20;;;;;;;15.99;64.93;100351.75;4993346;28;20050;-82
2023/10/05 04:33:50;;;;;;;5.57;2.85;;;;;;;15.99;65.01;100351.75;4993513;28;20050;-82
2023/10/05 04:36:19;;;;;;;7.43;3.20;;;;;;;15.97;65.17;100366.94;4993192;28;20490;-81
2023/10/05 04:38:46;;;;;;;6.72;3.13;;;;;;;15.96;65.17;100367.88;4993492;28;20141;-82
2023/10/05 04:41:13;;;;;;;10.52;3.65;;;;;;;15.95;65.34;100362.66;4992901;28;20053;-81
2023/10/05 04:43:43;;;;;;;7.13;3.90;;;;;;;15.92;65.77;100361.06;4992968;28;20089;-82
2023/10/05 04:46:10;;;;;;;6.70;3.65;;;;;;;15.93;65.19;100356.59;4993133;28;20050;-81
2023/10/05 04:48:47;;;;;;;8.90;3.60;;;;;;;15.92;65.24;100361.06;4993361;28;20061;-82
2023/10/05 04:51:14;;;;;;;8.45;3.80;;;;;;;15.90;65.28;100360.31;4992770;28;20097;-81
2023/10/05 04:53:42;;;;;;;10.60;3.58;;;;;;;15.89;65.39;100361.28;4993047;28;20077;-81
2023/10/05 04:56:27;;;;;;;11.18;4.00;;;;;;;15.86;65.25;100364.97;4992708;28;20046;-81
2023/10/05 05:06:59;;;;;;;11.60;3.88;;;;;;;15.77;65.22;100379.75;4992840;28;20140;-81
2023/10/05 05:09:29;;;;;;;12.50;4.15;;;;;;;15.73;65.49;100378.25;4992761;28;20141;-81
2023/10/05 05:12:03;;;;;;;11.10;4.32;;;;;;;15.73;65.57;100378.25;4992157;28;20113;-81
2023/10/05 05:14:44;;;;;;;8.25;3.53;;;;;;;15.70;66.22;100375.81;4992635;28;20086;-81
2023/10/05 05:17:15;;;;;;;10.85;3.97;;;;;;;15.70;66.18;100378.47;4992018;28;20050;-81
2023/10/05 05:19:42;;;;;;;12.80;3.97;;;;;;;15.70;65.86;100370.50;4992509;28;20050;-81
2023/10/05 05:22:09;;;;;;;8.98;4.07;;;;;;;15.72;65.89;100375.72;4974911;28;20073;-81
2023/10/05 05:24:37;;;;;;;7.75;3.75;;;;;;;15.71;65.91;100369.56;4992297;28;20529;-82
2023/10/05 05:27:21;;;;;;;11.15;4.13;;;;;;;15.71;65.90;100376.69;4992472;28;20054;-81
2023/10/05 05:29:51;;;;;;;8.60;4.05;;;;;;;15.71;65.84;100374.88;4992634;28;20062;-83
2023/10/05 05:32:22;;;;;;;11.80;3.60;;;;;;;15.71;65.47;100374.03;4974851;28;20050;-81
2023/10/05 05:34:50;;;;;;;10.20;4.15;;;;;;;15.69;65.56;100382.09;4992259;28;20054;-81
2023/10/05 05:37:28;;;;;;;16.60;4.70;;;;;;;15.67;65.66;100372.53;4992239;28;20170;-82
2023/10/05 05:40:11;;;;;;;11.95;4.03;;;;;;;15.65;65.52;100369.97;4992380;28;20051;-80
2023/10/05 05:42:39;;;;;;;9.40;3.70;;;;;;;15.63;65.32;100374.56;4991894;28;20050;-80
2023/10/05 05:45:15;;;;;;;11.90;3.85;;;;;;;15.61;65.35;100381.75;4991524;28;20050;-80
2023/10/05 05:47:48;;;;;;;10.43;3.67;;;;;;;15.55;65.77;100380.38;4975081;28;20058;-80
2023/10/05 05:50:18;;;;;;;10.23;3.92;;;;;;;15.55;65.32;100376.88;4992229;28;20046;-80
2023/10/05 05:52:51;;;;;;;12.75;3.60;;;;;;;15.51;65.43;100370.91;4991421;28;20526;-82
2023/10/05 05:55:20;;;;;;;7.27;3.40;;;;;;;15.48;65.59;100371.97;4991767;28;20089;-80
2023/10/05 05:57:50;;;;;;;11.52;4.18;;;;;;;15.46;65.43;100375.69;4974726;28;20442;-79
2023/10/05 06:00:20;;;;;;;10.93;4.00;;;;;;;15.42;65.46;100369.75;4974448;28;20050;-80
2023/10/05 06:02:47;;;;;;;7.25;4.00;;;;;;;15.39;65.51;100374.44;4991242;28;20082;-81
2023/10/05 06:05:14;;;;;;;7.03;3.80;;;;;;;15.36;65.68;100378.09;4973922;28;20046;-79
2023/10/05 06:07:42;;;;;;;11.30;3.80;;;;;;;15.33;65.75;100381.81;4990704;28;20132;-79
2023/10/05 06:10:14;;;;;;;13.10;3.75;;;;;;;15.31;65.81;100370.47;4991123;28;20062;-81
2023/10/05 06:12:44;;;;;;;12.90;4.15;;;;;;;15.29;65.86;100380.31;4990447;28;20050;-80
2023/10/05 06:15:13;;;;;;;9.45;4.50;;;;;;;15.28;65.65;100385.75;4973214;28;20058;-81
2023/10/05 06:17:41;;;;;;;12.43;4.38;;;;;;;15.24;65.79;100385.09;4990673;28;20057;-80
2023/10/05 06:20:14;;;;;;;10.48;3.70;;;;;;;15.22;65.81;100385.19;4991128;28;20415;-80
2023/10/05 06:22:45;;;;;;;14.13;4.07;;;;;;;15.20;65.98;100387.09;4974573;28;20108;-79
2023/10/05 06:25:15;;;;;;;8.85;4.03;;;;;;;15.22;66.14;100400.28;4991352;28;20046;-80
2023/10/05 06:27:44;;;;;;;10.35;4.15;;;;;;;15.20;66.20;100404.81;4991255;28;20061;-81
2023/10/05 06:30:11;;;;;;;9.43;3.95;;;;;;;15.20;66.32;100395.06;4991473;28;20110;-81
2023/10/05 06:32:38;;;;;;;12.25;3.85;;;;;;;15.22;66.57;100390.50;4991470;28;20153;-80
2023/10/05 06:35:08;;;;;;;13.07;4.00;;;;;;;15.23;66.51;100400.19;4991509;28;20120;-81
2023/10/05 06:37:37;;;;;;;11.77;3.92;;;;;;;15.26;66.66;100396.47;4974181;28;20054;-80
2023/10/05 06:40:14;;;;;;;8.48;3.53;;;;;;;15.28;67.07;100399.03;4991026;28;20078;-80
2023/10/05 06:42:43;;;;;;;11.95;4.28;;;;;;;15.32;66.88;100404.00;4974181;28;20047;-80
2023/10/05 06:45:13;;;;;;;12.82;3.78;;;;;;;15.35;66.88;100410.91;4991025;28;20062;-80
2023/10/05 06:47:41;;;;;;;11.05;3.83;;;;;;;15.40;66.86;100408.78;4991680;28;20121;-80
2023/10/05 06:50:08;;;;;;;10.25;3.60;;;;;;;15.43;66.88;100405.94;4991271;28;20042;-81
2023/10/05 06:52:39;;;;;;;10.45;3.65;;;;;;;15.46;67.16;100407.53;4973683;28;20047;-80
2023/10/05 06:55:07;;;;;;;10.48;3.95;;;;;;;15.51;66.74;100410.72;4990898;28;20054;-80
2023/10/05 06:57:36;;;;;;;13.70;3.88;;;;;;;15.54;66.45;100409.66;4973993;28;20509;-80
2023/10/05 07:00:26;;;;;;;8.82;3.50;;;;;;;15.56;66.86;100407.75;4991005;28;20532;-81
2023/10/05 07:02:54;;;;;;;9.48;3.78;;;;;;;15.60;66.26;100406.59;4989645;28;20178;-79
2023/10/05 07:05:21;;;;;;;9.80;4.75;;;;;;;15.61;66.43;100406.50;4989826;28;20051;-80
2023/10/05 07:07:47;;;;;;;8.25;3.42;;;;;;;15.63;66.54;100424.97;4973706;28;20510;-80
2023/10/05 07:10:15;;;;;;;9.23;3.75;;;;;;;15.63;66.37;100420.50;4990966;28;20086;-80
2023/10/05 07:12:46;;;;;;;10.73;4.15;;;;;;;15.66;66.44;100429.22;4990986;28;20053;-79
2023/10/05 07:15:15;;;;;;;14.97;3.87;;;;;;;15.67;66.43;100423.81;4973800;28;20062;-81
2023/10/05 07:17:42;;;;;;;9.07;3.72;;;;;;;15.69;66.37;100432.50;4991028;28;20051;-79
2023/10/05 07:20:12;;;;;;;11.85;3.47;;;;;;;15.72;66.57;100432.31;4990630;28;20066;-81
2023/10/05 07:22:40;;;;;;;10.55;4.00;;;;;;;15.73;66.53;100431.34;4989051;28;20047;-79
2023/10/05 07:25:09;;;;;;;9.38;3.92;;;;;;;15.77;66.87;100443.47;4990204;28;20129;-80
2023/10/05 07:27:35;;;;;;;12.35;3.90;;;;;;;15.82;66.69;100437.00;5067390;23;20142;-75
2023/10/05 07:30:03;;;;;;;8.65;3.80;;;;;;;15.85;66.75;100437.63;4970831;28;20094;-76
2023/10/05 07:32:31;;;;;;;12.43;4.00;;;;;;;15.90;66.58;100448.75;4990549;28;20050;-75
2023/10/05 07:34:58;;;;;;;10.82;4.10;;;;;;;15.95;66.68;100443.19;4990383;28;20384;-76
2023/10/05 07:37:26;;;;;;;8.52;3.08;;;;;;;15.99;66.63;100450.00;4990419;28;20072;-75
2023/10/05 07:39:53;;;;;;;6.93;3.83;;;;;;;16.05;66.78;100447.84;4993049;28;20133;-75
2023/10/05 07:42:20;;;;;;;7.55;3.80;;;;;;;16.10;66.60;100446.59;4994670;28;20502;-76
2023/10/05 07:44:46;;;;;;;10.52;4.03;;;;;;;16.16;66.42;100458.59;4994583;28;20069;-75
2023/10/05 07:47:14;;;;;;;12.65;3.80;;;;;;;16.22;66.37;100460.81;4977142;28;20506;-76
2023/10/05 07:49:41;;;;;;;10.07;3.15;;;;;;;16.27;66.41;100469.31;4977121;28;20043;-76
2023/10/05 07:52:11;;;;;;;10.25;3.80;;;;;;;16.32;66.43;100469.00;4975391;28;20054;-76
2023/10/05 07:54:38;;;;;;;14.55;4.15;;;;;;;16.37;66.28;100466.88;4975314;28;20058;-77
2023/10/05 07:57:09;;;;;;;12.15;4.18;;;;;;;16.41;66.14;100463.03;4968064;28;20050;-76
2023/10/05 07:59:42;;;;;;;17.17;4.25;;;;;;;16.46;66.30;100470.69;4994414;28;20042;-76
2023/10/05 08:02:14;;;;;;;9.43;3.75;;;;;;;16.52;66.05;100478.22;4994104;28;20050;-77
2023/10/05 08:04:41;;;;;;;7.50;3.78;;;;;;;16.57;65.91;100480.56;4994294;28;20538;-76
2023/10/05 08:07:11;;;;;;;8.05;3.30;;;;;;;16.62;65.79;100480.22;4994298;28;20046;-76
2023/10/05 08:09:41;;;;;;;10.82;3.72;;;;;;;16.66;65.97;100482.56;4993551;28;20046;-77
2023/10/05 08:12:09;;;;;;;7.78;3.72;;;;;;;16.70;65.93;100485.84;4985801;28;20082;-77
2023/10/05 08:14:37;;;;;;;14.30;3.63;;;;;;;16.74;65.78;100482.00;4993924;28;20515;-76
2023/10/05 08:17:11;;;;;;;10.85;3.70;;;;;;;16.80;65.47;100494.03;4993236;28;20050;-77
2023/10/05 08:19:39;;;;;;;10.88;3.75;;;;;;;16.85;65.77;100493.69;4993651;28;20400;-76
2023/10/05 08:22:06;;;;;;;15.05;3.90;;;;;;;16.89;65.39;100490.69;4993924;28;20737;-76
2023/10/05 08:24:32;;;;;;;12.43;3.72;;;;;;;16.94;65.53;100499.19;4977439;28;20039;-77
2023/10/05 08:27:02;;;;;;;8.80;3.88;;;;;;;16.99;65.66;100498.00;4985625;28;20074;-76
2023/10/05 08:29:32;;;;;;;8.93;3.60;;;;;;;17.05;65.59;100495.78;4976733;28;20050;-76
2023/10/05 08:31:58;;;;;;;13.45;3.70;;;;;;;17.12;65.46;100484.72;4993986;28;20069;-78
2023/10/05 08:34:25;;;;;;;9.68;3.65;;;;;;;17.17;65.27;100493.19;4993159;28;20039;-76
2023/10/05 08:36:55;;;;;;;11.82;3.63;;;;;;;17.23;65.32;100498.06;4993185;28;20089;-75
2023/10/05 08:39:25;;;;;;;10.45;3.40;;;;;;;17.27;65.10;100496.88;4993823;28;20050;-76
2023/10/05 08:42:03;;;;;;;9.48;3.72;;;;;;;17.32;64.92;100500.03;4993708;28;20047;-76
2023/10/05 08:44:30;;;;;;;9.65;3.38;;;;;;;17.38;64.81;100503.22;4976206;28;20055;-76
2023/10/05 08:46:58;;;;;;;10.52;3.78;;;;;;;17.43;64.64;100509.88;4975706;28;20113;-76
2023/10/05 08:49:27;;;;;;;11.57;3.15;;;;;;;17.45;64.73;100499.13;4986664;28;20097;-76
2023/10/05 08:51:54;;;;;;;11.50;4.03;;;;;;;17.51;64.56;100512.00;4973444;28;20047;-77
2023/10/05 08:54:33;;;;;;;12.27;3.47;;;;;;;17.56;64.33;100512.50;4974035;28;20046;-76
2023/10/05 08:57:09;;;;;;;9.68;3.35;;;;;;;17.61;64.51;100516.63;4973542;28;20078;-77
2023/10/05 08:59:39;;;;;;;12.63;3.85;;;;;;;17.64;64.41;100517.25;4974100;28;20039;-76
2023/10/05 09:02:08;;;;;;;14.25;3.50;;;;;;;17.70;64.67;100523.94;4985839;28;20098;-76
2023/10/05 09:04:44;;;;;;;11.55;3.33;;;;;;;17.76;64.42;100528.78;4992912;28;20046;-76
2023/10/05 09:07:27;;;;;;;9.27;3.75;;;;;;;17.78;64.02;100531.31;4989185;28;20105;-76
2023/10/05 09:09:54;;;;;;;;;;;;;;;17.86;64.07;100525.44;4993660;28;20046;-76
2023/10/05 09:12:36;;;;;;;9.32;3.20;;;;;;;17.96;63.73;100527.28;4993013;28;19937;-77
2023/10/05 09:17:59;;;;;;;9.13;3.28;;;;;;;18.02;63.18;100539.28;4992929;28;20053;-76
2023/10/05 09:20:31;;;;;;;13.13;3.80;;;;;;;18.05;63.62;100540.88;4992915;28;20046;-76
2023/10/05 09:23:04;;;;;;;10.98;2.95;;;;;;;18.08;63.40;100538.00;4992569;28;20109;-77
2023/10/05 09:25:35;;;;;;;9.20;3.37;;;;;;;18.12;63.20;100549.28;4992438;28;20454;-77
2023/10/05 09:28:15;;;;;;;11.43;3.60;;;;;;;18.17;63.67;100545.28;4992785;28;20381;-76
2023/10/05 09:31:00;;;;;;;10.50;3.30;;;;;;;18.17;63.23;100544.44;4992724;28;20090;-76
2023/10/05 09:33:33;;;;;;;13.50;3.55;;;;;;;18.26;63.39;100557.06;4992277;28;20526;-76
2023/10/05 09:36:19;;;;;;;8.90;3.47;;;;;;;18.28;63.14;100551.63;4992523;28;20108;-77
2023/10/05 09:38:46;;;;;;;12.38;3.50;;;;;;;18.38;63.38;100549.09;4975646;28;20078;-77
2023/10/05 09:41:17;;;;;;;9.15;3.45;;;;;;;18.42;63.15;100553.19;4958846;28;20049;-77
2023/10/05 09:43:44;;;;;;;10.25;3.83;;;;;;;18.49;63.09;100557.09;4992082;28;20144;-76
2023/10/05 09:46:15;;;;;;;8.52;3.17;;;;;;;18.53;62.90;100557.69;4973376;28;20050;-76
2023/10/05 09:48:43;;;;;;;13.18;4.25;;;;;;;18.57;62.38;100554.69;4992425;28;20081;-76
2023/10/05 09:51:14;;;;;;;13.80;3.53;;;;;;;18.60;62.19;100566.91;4992471;28;20047;-76
2023/10/05 09:53:43;;;;;;;11.98;3.83;;;;;;;18.62;62.98;100568.50;4992279;28;20069;-76
2023/10/05 09:56:14;;;;;;;10.20;3.08;;;;;;;18.65;62.34;100567.41;4991759;28;20053;-76
2023/10/05 09:58:46;;;;;;;13.20;3.85;;;;;;;18.69;62.43;100573.34;4992192;28;20042;-76
2023/10/05 10:01:13;;;;;;;9.27;2.92;;;;;;;18.72;62.53;100567.75;4992361;28;20141;-76
2023/10/05 10:03:45;;;;;;;12.77;3.42;;;;;;;18.75;62.45;100572.88;4991847;28;20053;-76
2023/10/05 10:06:17;;;;;;;8.93;3.58;;;;;;;18.80;62.41;100581.34;4989508;28;20050;-76
2023/10/05 10:08:51;;;;;;;10.95;3.78;;;;;;;18.84;62.25;100580.13;4991612;28;20054;-76
2023/10/05 10:11:19;;;;;;;12.10;3.95;;;;;;;18.90;62.14;100578.81;4992117;28;20050;-76
2023/10/05 10:13:52;;;;;;;10.40;3.42;;;;;;;18.89;61.19;100583.28;4991539;28;20065;-76
2023/10/05 10:16:23;;;;;;;9.45;3.30;;;;;;;18.95;61.38;100584.63;4991476;28;20046;-77
2023/10/05 10:19:03;;;;;;;13.77;3.35;;;;;;;18.95;61.12;100584.63;4990935;28;20133;-76
2023/10/05 10:21:42;;;;;;;15.40;3.55;;;;;;;18.95;61.28;100581.13;4972585;28;20388;-76
2023/10/05 10:24:20;;;;;;;14.63;3.95;;;;;;;19.01;61.56;100575.28;4983773;28;20046;-75
2023/10/05 10:27:15;;;;;;;7.22;3.70;;;;;;;19.00;61.44;100582.44;4988130;28;20047;-76
2023/10/05 10:29:45;;;;;;;10.07;4.05;;;;;;;19.10;61.32;100579.09;4988713;28;20054;-77
2023/10/05 10:32:12;;;;;;;8.63;3.65;;;;;;;19.14;61.35;100581.34;4991746;28;20061;-76
2023/10/05 10:34:42;;;;;;;11.65;3.58;;;;;;;19.19;61.80;100585.47;4990147;28;20086;-76
2023/10/05 10:37:10;;;;;;;12.35;3.42;;;;;;;19.24;62.00;100586.81;4991218;28;20490;-75
2023/10/05 10:39:37;;;;;;;9.60;3.90;;;;;;;19.32;61.53;100590.69;4991248;28;20053;-76
2023/10/05 10:42:04;;;;;;;9.80;3.75;;;;;;;19.39;61.75;100591.88;4989515;28;20046;-76
2023/10/05 10:47:35;;;;;;;10.10;3.90;;;;;;;19.57;61.45;100586.88;4973969;28;20042;-75
2023/10/05 10:50:15;;;;;;;9.27;4.05;;;;;;;19.62;60.44;100592.66;4990880;28;20046;-76
2023/10/05 10:52:46;;;;;;;13.15;4.32;;;;;;;19.71;60.96;100584.88;4991537;28;20415;-76
2023/10/05 10:55:16;;;;;;;11.35;3.85;;;;;;;19.76;60.51;100594.22;4983137;28;20054;-75
2023/10/05 10:57:47;;;;;;;12.18;4.18;;;;;;;19.81;59.85;100591.13;4991339;28;20549;-76
2023/10/05 11:03:12;;;;;;;12.98;3.47;;;;;;;19.90;59.96;100597.56;4987806;28;20113;-76
2023/10/05 11:05:51;;;;;;;8.70;3.42;;;;;;;19.90;60.09;100593.06;4971664;28;20058;-77
2023/10/05 11:08:21;;;;;;;10.20;3.38;;;;;;;19.91;59.89;100591.22;4984123;28;20043;-76
2023/10/05 11:11:19;;;;;;;9.50;3.65;;;;;;;19.87;59.47;100582.63;4990431;28;20050;-78
2023/10/05 11:13:54;;;;;;;10.68;3.60;;;;;;;19.92;59.14;100593.78;4986908;28;20050;-77
2023/10/05 11:16:33;;;;;;;15.23;4.28;;;;;;;19.84;58.85;100601.56;4992150;28;20066;-77
2023/10/05 11:19:03;;;;;;;10.68;3.47;;;;;;;19.83;58.97;100589.22;4992190;28;20042;-76
2023/10/05 11:21:47;;;;;;;;;;;;;;;19.75;59.54;100580.97;4993830;28;20113;-76
2023/10/05 11:24:18;;;;;;;8.88;3.28;;;;;;;19.76;59.16;100585.34;4993880;28;20364;-76
2023/10/05 11:29:30;;;;;;;9.32;3.55;;;;;;;19.63;59.68;100581.00;4993918;28;20497;-76
2023/10/05 11:32:12;;;;;;;9.30;3.58;;;;;;;19.62;60.01;100581.97;4994158;28;20064;-77
2023/10/05 11:35:13;;;;;;;13.02;3.55;;;;;;;19.62;59.99;100575.81;4994953;28;20050;-77
2023/10/05 11:37:58;;;;;;;15.75;3.42;;;;;;;19.74;60.88;100576.63;4994828;28;20085;-76
2023/10/05 11:40:31;;;;;;;9.05;3.28;;;;;;;19.86;60.50;100572.94;4988037;28;20093;-76
2023/10/05 11:42:58;;;;;;;8.10;3.33;;;;;;;19.98;60.39;100575.53;4992410;28;20046;-75
2023/10/05 11:45:24;;;;;;;13.43;3.15;;;;;;;20.08;60.20;100578.31;4994246;28;20105;-77
2023/10/05 11:47:54;;;;;;;11.05;3.05;;;;;;;20.20;60.08;100568.41;4994379;28;20522;-77
2023/10/05 11:50:24;;;;;;;12.82;3.70;;;;;;;20.29;59.83;100578.31;4994204;28;20058;-76
2023/10/05 11:52:55;;;;;;;12.38;3.28;;;;;;;20.35;59.14;100577.78;4993846;28;20046;-76
2023/10/05 11:55:21;;;;;;;13.05;3.50;;;;;;;20.37;58.66;100570.47;4993789;28;20046;-76
2023/10/05 11:57:48;;;;;;;5.78;2.97;;;;;;;20.36;58.09;100578.63;4993993;28;20053;-75
2023/10/05 12:00:18;;;;;;;8.45;3.10;;;;;;;20.32;57.83;100572.69;4994306;28;20053;-77
2023/10/05 12:02:45;;;;;;;7.55;3.10;;;;;;;20.25;57.81;100579.53;4994152;28;20050;-77
2023/10/05 12:05:13;;;;;;;6.45;2.90;;;;;;;20.14;57.55;100581.31;4993636;28;20054;-76
2023/10/05 12:07:42;;;;;;;7.63;3.20;;;;;;;20.05;57.69;100582.94;4993763;28;20480;-75